Time,TemperatureF,DewpointF,PressureIn,WindDirection,WindDirectionDegrees,WindSpeedMPH,WindSpeedGustMPH,Humidity,HourlyPrecipIn,Conditions,Clouds,dailyrainin,SoftwareType,DateUTC
2013-03-20 00:00:00,37.8,-4.4,29.80,West,281,4.0,4.0,16,0.00,,---,0.43,VWS V14.01,2013-03-20 04:00:00,
2013-03-20 00:05:00,37.6,-4.5,29.80,West,273,8.1,8.1,16,0.00,,---,0.00,VWS V14.01,2013-03-20 04:05:00,
2013-03-20 00:10:00,37.4,-4.7,29.80,West,277,4.9,4.9,16,0.00,,---,0.00,VWS V14.01,2013-03-20 04:10:00,
2013-03-20 00:15:00,37.4,-4.7,29.80,WNW,296,3.1,3.1,16,0.00,,---,0.00,VWS V14.01,2013-03-20 04:15:00,
2013-03-20 00:20:00,37.0,-3.7,29.80,NW,304,6.3,6.3,17,0.00,,---,0.00,VWS V14.01,2013-03-20 04:20:00,
2013-03-20 00:25:00,37.0,-3.7,29.80,NW,323,14.5,14.5,17,0.00,,---,0.00,VWS V14.01,2013-03-20 04:25:00,
2013-03-20 00:30:00,37.0,-3.7,29.80,WNW,299,15.0,15.0,17,0.00,,---,0.00,VWS V14.01,2013-03-20 04:30:00,
2013-03-20 00:35:00,37.4,-4.7,29.80,WNW,285,17.4,17.4,16,0.00,,---,0.00,VWS V14.01,2013-03-20 04:35:00,
2013-03-20 00:41:00,37.4,-4.7,29.80,West,276,10.5,10.5,16,0.00,,---,0.00,VWS V14.01,2013-03-20 04:41:00,
2013-03-20 00:46:00,37.2,-3.6,29.80,West,275,17.0,17.0,17,0.00,,---,0.00,VWS V14.01,2013-03-20 04:46:00,
2013-03-20 00:51:00,37.2,-3.6,29.80,West,279,4.0,4.0,17,0.00,,---,0.00,VWS V14.01,2013-03-20 04:51:00,
2013-03-20 00:56:00,36.9,-3.9,29.80,SSW,204,4.9,4.9,17,0.00,,---,0.00,VWS V14.01,2013-03-20 04:56:00,
2013-03-20 01:01:00,36.7,-4.0,29.83,West,260,8.3,8.3,17,0.00,,---,0.00,VWS V14.01,2013-03-20 05:01:00,
2013-03-20 01:06:00,36.5,-4.2,29.83,WSW,256,3.1,3.1,17,0.00,,---,0.00,VWS V14.01,2013-03-20 05:06:00,
2013-03-20 01:11:00,36.1,-4.5,29.83,WNW,298,6.3,6.3,17,0.00,,---,0.00,VWS V14.01,2013-03-20 05:11:00,
2013-03-20 01:16:00,36.1,-4.5,29.83,West,279,8.1,8.1,17,0.00,,---,0.00,VWS V14.01,2013-03-20 05:16:00,
2013-03-20 01:21:00,36.0,-4.6,29.83,WSW,258,8.1,8.1,17,0.00,,---,0.00,VWS V14.01,2013-03-20 05:21:00,
2013-03-20 01:26:00,35.8,-4.8,29.83,West,272,7.6,7.6,17,0.00,,---,0.00,VWS V14.01,2013-03-20 05:26:00,
2013-03-20 01:31:00,35.6,-4.9,29.83,West,264,9.6,9.6,17,0.00,,---,0.00,VWS V14.01,2013-03-20 05:31:00,
2013-03-20 01:37:00,35.6,-4.9,29.83,WNW,283,8.1,8.1,17,0.00,,---,0.00,VWS V14.01,2013-03-20 05:37:00,
2013-03-20 01:42:00,35.4,-5.1,29.83,West,271,5.4,5.4,17,0.00,,---,0.00,VWS V14.01,2013-03-20 05:42:00,
2013-03-20 01:47:00,35.2,-5.2,29.83,WNW,291,10.1,10.1,17,0.00,,---,0.00,VWS V14.01,2013-03-20 05:47:00,
2013-03-20 01:52:00,35.1,-5.3,29.83,WNW,299,6.3,6.3,17,0.00,,---,0.00,VWS V14.01,2013-03-20 05:52:00,
2013-03-20 01:57:00,34.9,-5.5,29.83,WNW,288,7.6,7.6,17,0.00,,---,0.00,VWS V14.01,2013-03-20 05:57:00,
2013-03-20 02:02:00,34.7,-5.6,29.83,WNW,298,6.3,6.3,17,0.00,,---,0.00,VWS V14.01,2013-03-20 06:02:00,
2013-03-20 02:07:00,34.5,-5.8,29.83,NW,322,8.1,8.1,17,0.00,,---,0.00,VWS V14.01,2013-03-20 06:07:00,
2013-03-20 02:12:00,34.5,-5.8,29.85,West,280,5.4,5.4,17,0.00,,---,0.00,VWS V14.01,2013-03-20 06:12:00,
2013-03-20 02:17:00,34.3,-5.9,29.85,West,270,7.6,7.6,17,0.00,,---,0.00,VWS V14.01,2013-03-20 06:17:00,
2013-03-20 02:22:00,34.3,-5.9,29.85,WNW,296,8.3,8.3,17,0.00,,---,0.00,VWS V14.01,2013-03-20 06:22:00,
2013-03-20 02:27:00,34.3,-5.9,29.85,WNW,288,6.3,6.3,17,0.00,,---,0.00,VWS V14.01,2013-03-20 06:27:00,
2013-03-20 02:32:00,34.2,-6.1,29.85,WSW,237,3.6,3.6,17,0.00,,---,0.00,VWS V14.01,2013-03-20 06:32:00,
2013-03-20 02:37:00,34.0,-6.2,29.85,NW,309,6.3,6.3,17,0.00,,---,0.00,VWS V14.01,2013-03-20 06:37:00,
2013-03-20 02:42:00,34.0,-6.2,29.85,West,269,11.9,11.9,17,0.00,,---,0.00,VWS V14.01,2013-03-20 06:42:00,
2013-03-20 02:47:00,34.0,-6.2,29.85,WSW,244,13.2,13.2,17,0.00,,---,0.00,VWS V14.01,2013-03-20 06:47:00,
2013-03-20 02:52:00,34.0,-2.9,29.85,WSW,240,4.9,4.9,20,0.00,,---,0.00,VWS V14.01,2013-03-20 06:52:00,
2013-03-20 02:57:00,34.0,-2.9,29.85,West,269,7.6,7.6,20,0.00,,---,0.00,VWS V14.01,2013-03-20 06:57:00,
2013-03-20 03:02:00,34.0,-2.9,29.85,West,275,8.1,8.1,20,0.00,,---,0.00,VWS V14.01,2013-03-20 07:02:00,
2013-03-20 03:07:00,33.8,-3.0,29.85,WSW,253,6.3,6.3,20,0.00,,---,0.00,VWS V14.01,2013-03-20 07:07:00,
2013-03-20 03:12:00,33.6,-3.2,29.85,NW,307,5.8,5.8,20,0.00,,---,0.00,VWS V14.01,2013-03-20 07:12:00,
2013-03-20 03:18:00,33.6,-3.2,29.85,WSW,253,5.4,5.4,20,0.00,,---,0.00,VWS V14.01,2013-03-20 07:18:00,
2013-03-20 03:23:00,33.4,-3.3,29.85,West,279,3.6,3.6,20,0.00,,---,0.00,VWS V14.01,2013-03-20 07:23:00,
2013-03-20 03:28:00,33.3,-3.5,29.85,West,260,5.4,5.4,20,0.00,,---,0.00,VWS V14.01,2013-03-20 07:28:00,
2013-03-20 03:33:00,33.1,-3.6,29.85,WSW,249,5.8,5.8,20,0.00,,---,0.00,VWS V14.01,2013-03-20 07:33:00,
2013-03-20 03:38:00,32.9,-0.8,29.85,West,259,8.1,8.1,23,0.00,,---,0.00,VWS V14.01,2013-03-20 07:38:00,
2013-03-20 03:43:00,32.9,-0.8,29.85,SSW,206,6.3,6.3,23,0.00,,---,0.00,VWS V14.01,2013-03-20 07:43:00,
2013-03-20 03:48:00,32.7,-1.0,29.85,SW,219,4.0,4.0,23,0.00,,---,0.00,VWS V14.01,2013-03-20 07:48:00,
2013-03-20 03:53:00,32.7,-1.0,29.85,South,187,11.0,11.0,23,0.00,,---,0.00,VWS V14.01,2013-03-20 07:53:00,
2013-03-20 03:58:00,32.9,-0.8,29.85,NW,305,5.4,5.4,23,0.00,,---,0.00,VWS V14.01,2013-03-20 07:58:00,
2013-03-20 04:03:00,32.9,-0.8,29.85,West,272,3.6,3.6,23,0.00,,---,0.00,VWS V14.01,2013-03-20 08:03:00,
2013-03-20 04:08:00,32.7,-3.9,29.85,West,267,8.7,8.7,20,0.00,,---,0.00,VWS V14.01,2013-03-20 08:08:00,
2013-03-20 04:13:00,32.7,-3.9,29.85,West,273,4.9,4.9,20,0.00,,---,0.00,VWS V14.01,2013-03-20 08:13:00,
2013-03-20 04:18:00,32.7,-3.9,29.85,West,266,6.3,6.3,20,0.00,,---,0.00,VWS V14.01,2013-03-20 08:18:00,
2013-03-20 04:23:00,32.5,-4.1,29.85,WSW,257,5.4,5.4,20,0.00,,---,0.00,VWS V14.01,2013-03-20 08:23:00,
2013-03-20 04:28:00,32.4,-4.2,29.85,WSW,239,0.0,0.0,20,0.00,,---,0.00,VWS V14.01,2013-03-20 08:28:00,
2013-03-20 04:33:00,32.2,-1.4,29.85,West,266,4.9,4.9,23,0.00,,---,0.00,VWS V14.01,2013-03-20 08:33:00,
2013-03-20 04:38:00,32.2,-1.4,29.85,West,272,3.1,3.1,23,0.00,,---,0.00,VWS V14.01,2013-03-20 08:38:00,
2013-03-20 04:43:00,32.0,0.2,29.85,WSW,249,4.9,4.9,25,0.00,,---,0.00,VWS V14.01,2013-03-20 08:43:00,
2013-03-20 04:48:00,32.0,0.2,29.85,WSW,246,5.4,5.4,25,0.00,,---,0.00,VWS V14.01,2013-03-20 08:48:00,
2013-03-20 04:53:00,32.0,2.6,29.85,WSW,248,5.4,5.4,28,0.00,,---,0.00,VWS V14.01,2013-03-20 08:53:00,
2013-03-20 04:58:00,32.0,2.6,29.88,WSW,248,5.4,5.4,28,0.00,,---,0.00,VWS V14.01,2013-03-20 08:58:00,
2013-03-20 05:03:00,32.2,4.2,29.88,SW,234,6.7,6.7,30,0.00,,---,0.00,VWS V14.01,2013-03-20 09:03:00,
2013-03-20 05:08:00,32.0,4.1,29.88,WSW,250,6.3,6.3,30,0.00,,---,0.00,VWS V14.01,2013-03-20 09:08:00,
2013-03-20 05:13:00,32.0,4.1,29.88,WSW,240,3.6,3.6,30,0.00,,---,0.00,VWS V14.01,2013-03-20 09:13:00,
2013-03-20 05:18:00,31.6,3.8,29.88,WSW,254,5.4,5.4,30,0.00,,---,0.00,VWS V14.01,2013-03-20 09:18:00,
2013-03-20 05:23:00,31.6,3.8,29.88,WSW,246,4.0,4.0,30,0.00,,---,0.00,VWS V14.01,2013-03-20 09:23:00,
2013-03-20 05:28:00,31.5,3.6,29.88,WSW,244,3.6,3.6,30,0.00,,---,0.00,VWS V14.01,2013-03-20 09:28:00,
2013-03-20 05:33:00,31.5,3.6,29.88,WSW,243,5.8,5.8,30,0.00,,---,0.00,VWS V14.01,2013-03-20 09:33:00,
2013-03-20 05:38:00,31.3,3.5,29.88,West,265,3.1,3.1,30,0.00,,---,0.00,VWS V14.01,2013-03-20 09:38:00,
2013-03-20 05:43:00,31.1,3.3,29.85,West,276,6.3,6.3,30,0.00,,---,0.00,VWS V14.01,2013-03-20 09:43:00,
2013-03-20 05:48:00,30.9,3.1,29.85,SSW,211,4.9,4.9,30,0.00,,---,0.00,VWS V14.01,2013-03-20 09:48:00,
2013-03-20 05:53:00,30.7,3.0,29.85,WSW,249,6.3,6.3,30,0.00,,---,0.00,VWS V14.01,2013-03-20 09:53:00,
2013-03-20 05:58:00,30.7,3.0,29.88,WSW,242,5.8,5.8,30,0.00,,---,0.00,VWS V14.01,2013-03-20 09:58:00,
2013-03-20 06:03:00,30.7,3.0,29.88,SW,231,5.4,5.4,30,0.00,,---,0.00,VWS V14.01,2013-03-20 10:03:00,
2013-03-20 06:08:00,31.1,3.3,29.88,WNW,287,5.4,5.4,30,0.00,,---,0.00,VWS V14.01,2013-03-20 10:08:00,
2013-03-20 06:13:00,31.1,3.3,29.88,WSW,252,10.1,10.1,30,0.00,,---,0.00,VWS V14.01,2013-03-20 10:13:00,
2013-03-20 06:18:00,31.1,1.8,29.88,WSW,243,6.3,6.3,28,0.00,,---,0.00,VWS V14.01,2013-03-20 10:18:00,
2013-03-20 06:23:00,31.1,1.8,29.88,WSW,242,3.6,3.6,28,0.00,,---,0.00,VWS V14.01,2013-03-20 10:23:00,
2013-03-20 06:28:00,31.1,1.8,29.88,SW,220,5.4,5.4,28,0.00,,---,0.00,VWS V14.01,2013-03-20 10:28:00,
2013-03-20 06:34:00,31.1,1.8,29.88,SW,232,5.4,5.4,28,0.00,,---,0.00,VWS V14.01,2013-03-20 10:34:00,
2013-03-20 06:39:00,30.9,1.7,29.88,WSW,243,5.4,5.4,28,0.00,,---,0.00,VWS V14.01,2013-03-20 10:39:00,
2013-03-20 06:44:00,30.7,1.5,29.88,SW,221,4.9,4.9,28,0.00,,---,0.00,VWS V14.01,2013-03-20 10:44:00,
2013-03-20 06:49:00,30.7,1.5,29.88,West,262,7.6,7.6,28,0.00,,---,0.00,VWS V14.01,2013-03-20 10:49:00,
2013-03-20 06:54:00,30.6,1.4,29.88,West,270,8.1,8.1,28,0.00,,---,0.00,VWS V14.01,2013-03-20 10:54:00,
2013-03-20 06:59:00,30.4,1.2,29.88,West,261,5.8,5.8,28,0.00,,---,0.00,VWS V14.01,2013-03-20 10:59:00,
2013-03-20 07:04:00,30.4,2.7,29.88,West,265,5.4,5.4,30,0.00,,---,0.00,VWS V14.01,2013-03-20 11:04:00,
2013-03-20 07:09:00,30.4,2.7,29.88,WSW,247,7.6,7.6,30,0.00,,---,0.00,VWS V14.01,2013-03-20 11:09:00,
2013-03-20 07:14:00,30.6,2.8,29.88,West,273,8.1,8.1,30,0.00,,---,0.00,VWS V14.01,2013-03-20 11:14:00,
2013-03-20 07:19:00,30.9,1.7,29.88,West,266,6.3,6.3,28,0.00,,---,0.00,VWS V14.01,2013-03-20 11:19:00,
2013-03-20 07:24:00,31.1,-0.6,29.88,WSW,240,6.3,6.3,25,0.00,,---,0.00,VWS V14.01,2013-03-20 11:24:00,
2013-03-20 07:29:00,31.6,-0.1,29.88,WNW,298,10.1,10.1,25,0.00,,---,0.00,VWS V14.01,2013-03-20 11:29:00,
2013-03-20 07:34:00,32.0,-1.6,29.88,WNW,290,8.1,8.1,23,0.00,,---,0.00,VWS V14.01,2013-03-20 11:34:00,
2013-03-20 07:39:00,32.2,-1.4,29.88,SW,226,4.9,4.9,23,0.00,,---,0.00,VWS V14.01,2013-03-20 11:39:00,
2013-03-20 07:44:00,32.2,-1.4,29.88,West,279,8.1,8.1,23,0.00,,---,0.00,VWS V14.01,2013-03-20 11:44:00,
2013-03-20 07:49:00,32.5,-1.1,29.88,West,278,8.3,8.3,23,0.00,,---,0.00,VWS V14.01,2013-03-20 11:49:00,
2013-03-20 07:54:00,32.7,-1.0,29.88,WNW,299,10.1,10.1,23,0.00,,---,0.00,VWS V14.01,2013-03-20 11:54:00,
2013-03-20 07:59:00,33.1,-0.7,29.88,West,273,10.5,10.5,23,0.00,,---,0.00,VWS V14.01,2013-03-20 11:59:00,
2013-03-20 08:04:00,33.6,-3.2,29.88,WSW,256,5.8,5.8,20,0.00,,---,0.00,VWS V14.01,2013-03-20 12:04:00,
2013-03-20 08:09:00,33.8,-3.0,29.88,WNW,291,8.3,8.3,20,0.00,,---,0.00,VWS V14.01,2013-03-20 12:09:00,
2013-03-20 08:15:00,34.2,-2.7,29.88,WNW,291,8.3,8.3,20,0.00,,---,0.00,VWS V14.01,2013-03-20 12:15:00,
2013-03-20 08:20:00,34.5,-2.4,29.88,SW,233,7.6,7.6,20,0.00,,---,0.00,VWS V14.01,2013-03-20 12:20:00,
2013-03-20 08:25:00,34.9,-2.1,29.88,WNW,285,15.0,15.0,20,0.00,,---,0.00,VWS V14.01,2013-03-20 12:25:00,
2013-03-20 08:30:00,35.1,-2.0,29.88,NW,312,5.8,5.8,20,0.00,,---,0.00,VWS V14.01,2013-03-20 12:30:00,
2013-03-20 08:35:00,35.4,-1.6,29.88,SW,221,10.1,10.1,20,0.00,,---,0.00,VWS V14.01,2013-03-20 12:35:00,
2013-03-20 08:40:00,35.8,-2.4,29.88,West,271,8.3,8.3,19,0.00,,---,0.00,VWS V14.01,2013-03-20 12:40:00,
2013-03-20 08:45:00,36.7,-1.7,29.85,NNW,329,9.6,9.6,19,0.00,,---,0.00,VWS V14.01,2013-03-20 12:45:00,
2013-03-20 08:50:00,39.9,-2.6,29.85,WNW,298,5.4,5.4,16,0.00,,---,0.00,VWS V14.01,2013-03-20 12:50:00,
2013-03-20 08:55:00,42.6,-0.4,29.85,WSW,250,15.4,15.4,16,0.00,,---,0.00,VWS V14.01,2013-03-20 12:55:00,
2013-03-20 09:00:00,46.6,-0.1,29.85,WSW,244,11.0,11.0,14,0.00,,---,0.00,VWS V14.01,2013-03-20 13:00:00,
2013-03-20 09:05:00,48.2,1.2,29.85,SW,225,15.0,15.0,14,0.00,,---,0.00,VWS V14.01,2013-03-20 13:05:00,
2013-03-20 09:10:00,47.3,0.5,29.85,WNW,296,12.3,12.3,14,0.00,,---,0.00,VWS V14.01,2013-03-20 13:10:00,
2013-03-20 09:15:00,44.6,-0.2,29.88,SW,221,17.0,17.0,15,0.00,,---,0.00,VWS V14.01,2013-03-20 13:15:00,
2013-03-20 09:20:00,44.6,-0.2,29.88,West,276,12.3,12.3,15,0.00,,---,0.00,VWS V14.01,2013-03-20 13:20:00,
2013-03-20 09:25:00,46.8,0.1,29.88,WNW,285,14.5,14.5,14,0.00,,---,0.00,VWS V14.01,2013-03-20 13:25:00,
2013-03-20 09:30:00,49.6,2.4,29.88,West,266,8.7,8.7,14,0.00,,---,0.00,VWS V14.01,2013-03-20 13:30:00,
2013-03-20 09:35:00,50.5,3.1,29.88,WSW,246,10.5,10.5,14,0.00,,---,0.00,VWS V14.01,2013-03-20 13:35:00,
2013-03-20 09:40:00,49.3,2.1,29.88,SW,217,15.0,15.0,14,0.00,,---,0.00,VWS V14.01,2013-03-20 13:40:00,
2013-03-20 09:45:00,48.9,1.8,29.85,West,279,19.2,19.2,14,0.00,,---,0.00,VWS V14.01,2013-03-20 13:45:00,
2013-03-20 09:50:00,49.3,2.1,29.85,West,267,13.6,13.6,14,0.00,,---,0.00,VWS V14.01,2013-03-20 13:50:00,
2013-03-20 09:55:00,47.7,0.8,29.85,West,260,8.1,8.1,14,0.00,,---,0.00,VWS V14.01,2013-03-20 13:55:00,
2013-03-20 10:00:00,48.4,1.4,29.88,West,272,12.8,12.8,14,0.00,,---,0.00,VWS V14.01,2013-03-20 14:00:00,
2013-03-20 10:05:00,50.4,3.0,29.88,WNW,296,12.3,12.3,14,0.00,,---,0.00,VWS V14.01,2013-03-20 14:05:00,
2013-03-20 10:10:00,51.8,2.5,29.88,WNW,287,12.8,12.8,13,0.00,,---,0.00,VWS V14.01,2013-03-20 14:10:00,
2013-03-20 10:15:00,52.3,3.0,29.88,West,262,10.1,10.1,13,0.00,,---,0.00,VWS V14.01,2013-03-20 14:15:00,
2013-03-20 10:20:00,52.3,3.0,29.88,West,275,6.7,6.7,13,0.00,,---,0.00,VWS V14.01,2013-03-20 14:20:00,
2013-03-20 10:25:00,50.9,3.4,29.88,SW,232,14.5,14.5,14,0.00,,---,0.00,VWS V14.01,2013-03-20 14:25:00,
2013-03-20 10:30:00,51.1,3.6,29.88,West,275,5.8,5.8,14,0.00,,---,0.00,VWS V14.01,2013-03-20 14:30:00,
2013-03-20 10:35:00,51.4,3.8,29.88,WSW,237,5.4,5.4,14,0.00,,---,0.00,VWS V14.01,2013-03-20 14:35:00,
2013-03-20 10:40:00,51.8,2.5,29.88,NW,319,11.0,11.0,13,0.00,,---,0.00,VWS V14.01,2013-03-20 14:40:00,
2013-03-20 10:45:00,52.2,2.8,29.85,SSW,205,15.4,15.4,13,0.00,,---,0.00,VWS V14.01,2013-03-20 14:45:00,
2013-03-20 10:50:00,52.3,3.0,29.85,West,281,15.0,15.0,13,0.00,,---,0.00,VWS V14.01,2013-03-20 14:50:00,
2013-03-20 10:55:00,48.9,1.8,29.85,WNW,288,15.0,15.0,14,0.00,,---,0.00,VWS V14.01,2013-03-20 14:55:00,
2013-03-20 11:00:00,45.7,0.7,29.85,West,273,15.9,15.9,15,0.00,,---,0.00,VWS V14.01,2013-03-20 15:00:00,
2013-03-20 11:05:00,44.6,-0.2,29.85,WNW,294,19.7,19.7,15,0.00,,---,0.00,VWS V14.01,2013-03-20 15:05:00,
2013-03-20 11:10:00,43.9,-0.8,29.85,WSW,258,8.7,8.7,15,0.00,,---,0.00,VWS V14.01,2013-03-20 15:10:00,
2013-03-20 11:15:00,43.9,-0.8,29.85,WNW,286,8.1,8.1,15,0.00,,---,0.00,VWS V14.01,2013-03-20 15:15:00,
2013-03-20 11:20:00,44.8,0.0,29.85,WSW,258,10.5,10.5,15,0.00,,---,0.00,VWS V14.01,2013-03-20 15:20:00,
2013-03-20 11:25:00,45.1,0.3,29.85,SW,236,8.7,8.7,15,0.00,,---,0.00,VWS V14.01,2013-03-20 15:25:00,
2013-03-20 11:30:00,45.0,0.1,29.85,WNW,291,8.3,8.3,15,0.00,,---,0.00,VWS V14.01,2013-03-20 15:30:00,
2013-03-20 11:35:00,45.3,0.4,29.85,WSW,244,9.6,9.6,15,0.00,,---,0.00,VWS V14.01,2013-03-20 15:35:00,
2013-03-20 11:40:00,45.7,0.7,29.85,West,262,8.1,8.1,15,0.00,,---,0.00,VWS V14.01,2013-03-20 15:40:00,
2013-03-20 11:45:00,46.0,1.0,29.85,SW,233,5.4,5.4,15,0.00,,---,0.00,VWS V14.01,2013-03-20 15:45:00,
2013-03-20 11:51:00,46.2,1.1,29.85,SW,229,11.9,11.9,15,0.00,,---,0.00,VWS V14.01,2013-03-20 15:51:00,
2013-03-20 11:56:00,46.2,1.1,29.85,WSW,241,10.5,10.5,15,0.00,,---,0.00,VWS V14.01,2013-03-20 15:56:00,
2013-03-20 12:01:00,46.0,1.0,29.85,SSW,199,5.4,5.4,15,0.00,,---,0.00,VWS V14.01,2013-03-20 16:01:00,
2013-03-20 12:06:00,46.2,1.1,29.85,WSW,243,13.2,13.2,15,0.00,,---,0.00,VWS V14.01,2013-03-20 16:06:00,
2013-03-20 12:11:00,46.2,1.1,29.85,WSW,241,12.3,12.3,15,0.00,,---,0.00,VWS V14.01,2013-03-20 16:11:00,
2013-03-20 12:16:00,46.4,-0.2,29.85,NW,325,5.4,5.4,14,0.00,,---,0.00,VWS V14.01,2013-03-20 16:16:00,
2013-03-20 12:21:00,46.9,0.2,29.85,West,261,15.4,15.4,14,0.00,,---,0.00,VWS V14.01,2013-03-20 16:21:00,
2013-03-20 12:26:00,47.1,0.4,29.85,WSW,238,8.7,8.7,14,0.00,,---,0.00,VWS V14.01,2013-03-20 16:26:00,
2013-03-20 12:31:00,47.5,0.7,29.85,West,272,10.5,10.5,14,0.00,,---,0.00,VWS V14.01,2013-03-20 16:31:00,
2013-03-20 12:36:00,47.8,1.0,29.85,WSW,253,11.0,11.0,14,0.00,,---,0.00,VWS V14.01,2013-03-20 16:36:00,
2013-03-20 12:41:00,48.2,1.2,29.83,WSW,255,13.2,13.2,14,0.00,,---,0.00,VWS V14.01,2013-03-20 16:41:00,
2013-03-20 12:47:00,48.6,1.5,29.83,WNW,282,11.0,11.0,14,0.00,,---,0.00,VWS V14.01,2013-03-20 16:47:00,
2013-03-20 12:52:00,48.9,1.8,29.83,SW,230,7.6,7.6,14,0.00,,---,0.00,VWS V14.01,2013-03-20 16:52:00,
2013-03-20 12:57:00,49.5,2.3,29.83,WNW,286,10.5,10.5,14,0.00,,---,0.00,VWS V14.01,2013-03-20 16:57:00,
2013-03-20 13:02:00,49.6,2.4,29.83,WSW,242,8.3,8.3,14,0.00,,---,0.00,VWS V14.01,2013-03-20 17:02:00,
2013-03-20 13:07:00,49.8,2.5,29.83,WNW,299,7.6,7.6,14,0.00,,---,0.00,VWS V14.01,2013-03-20 17:07:00,
2013-03-20 13:12:00,50.2,2.8,29.83,SW,223,8.1,8.1,14,0.00,,---,0.00,VWS V14.01,2013-03-20 17:12:00,
2013-03-20 13:17:00,51.1,3.6,29.83,West,265,10.1,10.1,14,0.00,,---,0.00,VWS V14.01,2013-03-20 17:17:00,
2013-03-20 13:22:00,51.8,2.5,29.83,WNW,289,8.7,8.7,13,0.00,,---,0.00,VWS V14.01,2013-03-20 17:22:00,
2013-03-20 13:27:00,51.8,2.5,29.83,WSW,241,8.3,8.3,13,0.00,,---,0.00,VWS V14.01,2013-03-20 17:27:00,
2013-03-20 13:32:00,51.3,3.7,29.83,WSW,244,6.3,6.3,14,0.00,,---,0.00,VWS V14.01,2013-03-20 17:32:00,
2013-03-20 13:37:00,51.1,3.6,29.83,SW,234,10.5,10.5,14,0.00,,---,0.00,VWS V14.01,2013-03-20 17:37:00,
2013-03-20 13:42:00,51.3,3.7,29.83,West,268,8.7,8.7,14,0.00,,---,0.00,VWS V14.01,2013-03-20 17:42:00,
2013-03-20 13:47:00,51.3,3.7,29.83,WSW,245,9.6,9.6,14,0.00,,---,0.00,VWS V14.01,2013-03-20 17:47:00,
2013-03-20 13:52:00,52.0,2.7,29.83,WSW,244,11.9,11.9,13,0.00,,---,0.00,VWS V14.01,2013-03-20 17:52:00,
2013-03-20 13:57:00,51.6,4.0,29.80,West,265,11.9,11.9,14,0.00,,---,0.00,VWS V14.01,2013-03-20 17:57:00,
2013-03-20 14:02:00,52.0,2.7,29.80,WNW,299,15.9,15.9,13,0.00,,---,0.00,VWS V14.01,2013-03-20 18:02:00,
2013-03-20 14:07:00,52.2,2.8,29.80,SW,215,10.1,10.1,13,0.00,,---,0.00,VWS V14.01,2013-03-20 18:07:00,
2013-03-20 14:13:00,52.9,3.4,29.80,SSW,203,9.2,9.2,13,0.00,,---,0.00,VWS V14.01,2013-03-20 18:13:00,
2013-03-20 14:18:00,52.9,3.4,29.80,SW,223,8.3,8.3,13,0.00,,---,0.00,VWS V14.01,2013-03-20 18:18:00,
2013-03-20 14:23:00,52.5,3.1,29.80,NW,319,12.3,12.3,13,0.00,,---,0.00,VWS V14.01,2013-03-20 18:23:00,
2013-03-20 14:28:00,52.5,3.1,29.80,SSW,204,9.6,9.6,13,0.00,,---,0.00,VWS V14.01,2013-03-20 18:28:00,
2013-03-20 14:33:00,52.7,3.2,29.80,SSW,205,8.7,8.7,13,0.00,,---,0.00,VWS V14.01,2013-03-20 18:33:00,
2013-03-20 14:38:00,52.2,2.8,29.80,WSW,257,17.0,17.0,13,0.00,,---,0.00,VWS V14.01,2013-03-20 18:38:00,
2013-03-20 14:43:00,52.0,2.7,29.80,WSW,249,6.3,6.3,13,0.00,,---,0.00,VWS V14.01,2013-03-20 18:43:00,
2013-03-20 14:48:00,51.8,2.5,29.80,WSW,249,19.7,19.7,13,0.00,,---,0.00,VWS V14.01,2013-03-20 18:48:00,
2013-03-20 14:53:00,51.4,3.8,29.80,West,265,13.2,13.2,14,0.00,,---,0.00,VWS V14.01,2013-03-20 18:53:00,
2013-03-20 14:58:00,51.4,3.8,29.77,WSW,252,15.0,15.0,14,0.00,,---,0.00,VWS V14.01,2013-03-20 18:58:00,
2013-03-20 15:03:00,51.3,3.7,29.77,WSW,239,7.6,7.6,14,0.00,,---,0.00,VWS V14.01,2013-03-20 19:03:00,
2013-03-20 15:08:00,50.4,3.0,29.77,WSW,256,10.1,10.1,14,0.00,,---,0.00,VWS V14.01,2013-03-20 19:08:00,
2013-03-20 15:13:00,50.0,2.7,29.77,SW,223,8.7,8.7,14,0.00,,---,0.00,VWS V14.01,2013-03-20 19:13:00,
2013-03-20 15:18:00,48.7,1.7,29.77,SW,235,7.6,7.6,14,0.00,,---,0.00,VWS V14.01,2013-03-20 19:18:00,
2013-03-20 15:23:00,48.9,1.8,29.77,WSW,251,5.8,5.8,14,0.00,,---,0.00,VWS V14.01,2013-03-20 19:23:00,
2013-03-20 15:28:00,48.7,1.7,29.77,SW,219,11.0,11.0,14,0.00,,---,0.00,VWS V14.01,2013-03-20 19:28:00,
2013-03-20 15:33:00,48.9,1.8,29.77,WNW,298,14.1,14.1,14,0.00,,---,0.00,VWS V14.01,2013-03-20 19:33:00,
2013-03-20 15:38:00,48.9,1.8,29.77,WSW,239,5.8,5.8,14,0.00,,---,0.00,VWS V14.01,2013-03-20 19:38:00,
2013-03-20 15:43:00,48.7,1.7,29.77,WSW,247,8.3,8.3,14,0.00,,---,0.00,VWS V14.01,2013-03-20 19:43:00,
2013-03-20 15:48:00,48.6,1.5,29.77,WSW,241,4.9,4.9,14,0.00,,---,0.00,VWS V14.01,2013-03-20 19:48:00,
2013-03-20 15:53:00,48.9,1.8,29.77,SSW,201,10.1,10.1,14,0.00,,---,0.00,VWS V14.01,2013-03-20 19:53:00,
2013-03-20 15:58:00,49.6,2.4,29.77,SW,221,13.2,13.2,14,0.00,,---,0.00,VWS V14.01,2013-03-20 19:58:00,
2013-03-20 16:03:00,49.3,2.1,29.77,SW,216,8.7,8.7,14,0.00,,---,0.00,VWS V14.01,2013-03-20 20:03:00,
2013-03-20 16:08:00,49.1,2.0,29.77,SW,235,5.8,5.8,14,0.00,,---,0.00,VWS V14.01,2013-03-20 20:08:00,
2013-03-20 16:13:00,48.9,1.8,29.77,WSW,241,11.0,11.0,14,0.00,,---,0.00,VWS V14.01,2013-03-20 20:13:00,
2013-03-20 16:18:00,48.7,1.7,29.77,SW,236,8.3,8.3,14,0.00,,---,0.00,VWS V14.01,2013-03-20 20:18:00,
2013-03-20 16:23:00,48.7,1.7,29.77,SSW,212,8.7,8.7,14,0.00,,---,0.00,VWS V14.01,2013-03-20 20:23:00,
2013-03-20 16:28:00,48.6,1.5,29.77,WNW,288,22.8,22.8,14,0.00,,---,0.00,VWS V14.01,2013-03-20 20:28:00,
2013-03-20 16:33:00,48.4,1.4,29.77,WSW,251,6.3,6.3,14,0.00,,---,0.00,VWS V14.01,2013-03-20 20:33:00,
2013-03-20 16:38:00,48.6,1.5,29.77,WNW,285,14.5,14.5,14,0.00,,---,0.00,VWS V14.01,2013-03-20 20:38:00,
2013-03-20 16:43:00,48.6,1.5,29.77,SW,235,4.0,4.0,14,0.00,,---,0.00,VWS V14.01,2013-03-20 20:43:00,
2013-03-20 16:49:00,48.4,1.4,29.77,SW,230,5.8,5.8,14,0.00,,---,0.00,VWS V14.01,2013-03-20 20:49:00,
2013-03-20 16:54:00,47.8,1.0,29.77,SSW,207,9.6,9.6,14,0.00,,---,0.00,VWS V14.01,2013-03-20 20:54:00,
2013-03-20 16:59:00,48.0,1.1,29.77,WSW,254,11.4,11.4,14,0.00,,---,0.00,VWS V14.01,2013-03-20 20:59:00,
2013-03-20 17:04:00,47.8,1.0,29.77,WSW,248,8.7,8.7,14,0.00,,---,0.00,VWS V14.01,2013-03-20 21:04:00,
2013-03-20 17:09:00,47.3,0.5,29.77,NW,308,11.0,11.0,14,0.00,,---,0.00,VWS V14.01,2013-03-20 21:09:00,
2013-03-20 17:14:00,47.1,0.4,29.77,WSW,238,25.7,25.7,14,0.00,,---,0.00,VWS V14.01,2013-03-20 21:14:00,
2013-03-20 17:19:00,47.3,0.5,29.77,WNW,283,15.4,15.4,14,0.00,,---,0.00,VWS V14.01,2013-03-20 21:19:00,
2013-03-20 17:24:00,47.3,0.5,29.77,West,274,15.0,15.0,14,0.00,,---,0.00,VWS V14.01,2013-03-20 21:24:00,
2013-03-20 17:29:00,47.1,0.4,29.77,West,260,3.6,3.6,14,0.00,,---,0.00,VWS V14.01,2013-03-20 21:29:00,
2013-03-20 17:34:00,47.1,0.4,29.77,West,270,11.9,11.9,14,0.00,,---,0.00,VWS V14.01,2013-03-20 21:34:00,
2013-03-20 17:39:00,47.1,0.4,29.77,West,264,9.2,9.2,14,0.00,,---,0.00,VWS V14.01,2013-03-20 21:39:00,
2013-03-20 17:44:00,46.8,0.1,29.77,West,260,4.5,4.5,14,0.00,,---,0.00,VWS V14.01,2013-03-20 21:44:00,
2013-03-20 17:49:00,46.6,-0.1,29.77,SW,232,5.8,5.8,14,0.00,,---,0.00,VWS V14.01,2013-03-20 21:49:00,
2013-03-20 17:54:00,46.4,-0.2,29.77,WSW,250,12.8,12.8,14,0.00,,---,0.00,VWS V14.01,2013-03-20 21:54:00,
2013-03-20 17:59:00,46.2,1.1,29.77,SW,222,5.8,5.8,15,0.00,,---,0.00,VWS V14.01,2013-03-20 21:59:00,
2013-03-20 18:04:00,46.0,1.0,29.77,WNW,287,5.8,5.8,15,0.00,,---,0.00,VWS V14.01,2013-03-20 22:04:00,
2013-03-20 18:09:00,46.0,1.0,29.77,West,281,5.4,5.4,15,0.00,,---,0.00,VWS V14.01,2013-03-20 22:09:00,
2013-03-20 18:14:00,46.0,1.0,29.77,WSW,244,5.4,5.4,15,0.00,,---,0.00,VWS V14.01,2013-03-20 22:14:00,
2013-03-20 18:19:00,46.0,1.0,29.77,WSW,242,10.5,10.5,15,0.00,,---,0.00,VWS V14.01,2013-03-20 22:19:00,
2013-03-20 18:24:00,46.0,1.0,29.77,WSW,248,6.3,6.3,15,0.00,,---,0.00,VWS V14.01,2013-03-20 22:24:00,
2013-03-20 18:29:00,45.9,0.8,29.77,South,172,5.8,5.8,15,0.00,,---,0.00,VWS V14.01,2013-03-20 22:29:00,
2013-03-20 18:34:00,45.5,0.6,29.77,WSW,244,5.8,5.8,15,0.00,,---,0.00,VWS V14.01,2013-03-20 22:34:00,
2013-03-20 18:39:00,45.3,-4.3,29.77,WSW,252,16.8,16.8,12,0.00,,---,0.00,VWS V14.01,2013-03-20 22:39:00,
2013-03-20 18:44:00,45.3,-4.3,29.77,West,259,8.1,8.1,12,0.00,,---,0.00,VWS V14.01,2013-03-20 22:44:00,
2013-03-20 18:49:00,45.1,-4.4,29.77,SW,232,4.9,4.9,12,0.00,,---,0.00,VWS V14.01,2013-03-20 22:49:00,
2013-03-20 18:54:00,44.8,-4.7,29.77,SW,224,7.2,7.2,12,0.00,,---,0.00,VWS V14.01,2013-03-20 22:54:00,
2013-03-20 18:59:00,44.6,-4.9,29.77,WSW,252,7.2,7.2,12,0.00,,---,0.00,VWS V14.01,2013-03-20 22:59:00,
2013-03-20 19:04:00,44.1,-3.6,29.77,SSW,210,4.0,4.0,13,0.00,,---,0.00,VWS V14.01,2013-03-20 23:04:00,
2013-03-20 19:09:00,43.7,-3.9,29.77,WSW,239,3.6,3.6,13,0.00,,---,0.00,VWS V14.01,2013-03-20 23:09:00,
2013-03-20 19:14:00,43.2,-4.3,29.77,SW,232,4.0,4.0,13,0.00,,---,0.00,VWS V14.01,2013-03-20 23:14:00,
2013-03-20 19:19:00,42.4,-4.9,29.77,SW,222,0.0,0.0,13,0.00,,---,0.00,VWS V14.01,2013-03-20 23:19:00,
2013-03-20 19:24:00,41.7,-5.5,29.77,SSW,204,0.0,0.0,13,0.00,,---,0.00,VWS V14.01,2013-03-20 23:24:00,
2013-03-20 19:29:00,41.4,-5.8,29.77,SW,231,0.0,0.0,13,0.00,,---,0.00,VWS V14.01,2013-03-20 23:29:00,
2013-03-20 19:34:00,41.0,-6.1,29.77,SW,231,0.0,0.0,13,0.00,,---,0.00,VWS V14.01,2013-03-20 23:34:00,
2013-03-20 19:39:00,40.6,-6.4,29.77,SW,231,0.0,0.0,13,0.00,,---,0.00,VWS V14.01,2013-03-20 23:39:00,
2013-03-20 19:44:00,40.3,-6.7,29.77,SW,231,0.0,0.0,13,0.00,,---,0.00,VWS V14.01,2013-03-20 23:44:00,
2013-03-20 19:49:00,39.9,-6.9,29.77,SW,231,0.0,0.0,13,0.00,,---,0.00,VWS V14.01,2013-03-20 23:49:00,
2013-03-20 19:54:00,39.7,-7.1,29.77,SW,231,0.0,0.0,13,0.00,,---,0.00,VWS V14.01,2013-03-20 23:54:00,
2013-03-20 19:59:00,39.6,-7.2,29.77,SW,231,0.0,0.0,13,0.00,,---,0.00,VWS V14.01,2013-03-20 23:59:00,
2013-03-20 20:04:00,39.4,-7.4,29.77,SW,231,0.0,0.0,13,0.00,,---,0.00,VWS V14.01,2013-03-21 00:04:00,
2013-03-20 20:09:00,39.2,-7.5,29.77,SW,231,0.0,0.0,13,0.00,,---,0.00,VWS V14.01,2013-03-21 00:09:00,
2013-03-20 20:14:00,39.4,-7.4,29.77,SW,231,0.0,0.0,13,0.00,,---,0.00,VWS V14.01,2013-03-21 00:14:00,
2013-03-20 20:20:00,39.4,-7.4,29.77,SW,231,0.0,0.0,13,0.00,,---,0.00,VWS V14.01,2013-03-21 00:20:00,
2013-03-20 20:25:00,39.4,-7.4,29.77,SW,231,0.0,0.0,13,0.00,,---,0.00,VWS V14.01,2013-03-21 00:25:00,
2013-03-20 20:30:00,39.4,-7.4,29.77,SW,231,0.0,0.0,13,0.00,,---,0.00,VWS V14.01,2013-03-21 00:30:00,
2013-03-20 20:35:00,39.2,-3.2,29.77,SW,231,0.0,0.0,16,0.00,,---,0.00,VWS V14.01,2013-03-21 00:35:00,
2013-03-20 20:40:00,39.2,-3.2,29.77,SW,231,0.0,0.0,16,0.00,,---,0.00,VWS V14.01,2013-03-21 00:40:00,
2013-03-20 20:45:00,39.2,-3.2,29.77,SW,231,0.0,0.0,16,0.00,,---,0.00,VWS V14.01,2013-03-21 00:45:00,
2013-03-20 20:50:00,39.2,-3.2,29.77,SW,231,0.0,0.0,16,0.00,,---,0.00,VWS V14.01,2013-03-21 00:50:00,
2013-03-20 20:55:00,39.0,-3.4,29.77,SW,231,0.0,0.0,16,0.00,,---,0.00,VWS V14.01,2013-03-21 00:55:00,
2013-03-20 21:00:00,39.0,-3.4,29.77,SW,231,0.0,0.0,16,0.00,,---,0.00,VWS V14.01,2013-03-21 01:00:00,
2013-03-20 21:05:00,39.2,-3.2,29.77,SW,231,0.0,0.0,16,0.00,,---,0.00,VWS V14.01,2013-03-21 01:05:00,
2013-03-20 21:10:00,39.2,-3.2,29.77,SW,231,0.0,0.0,16,0.00,,---,0.00,VWS V14.01,2013-03-21 01:10:00,
2013-03-20 21:15:00,39.2,-3.2,29.77,West,259,0.0,0.0,16,0.00,,---,0.00,VWS V14.01,2013-03-21 01:15:00,
2013-03-20 21:20:00,39.2,-3.2,29.77,West,259,0.0,0.0,16,0.00,,---,0.00,VWS V14.01,2013-03-21 01:20:00,
2013-03-20 21:25:00,38.8,-3.5,29.77,West,259,0.0,0.0,16,0.00,,---,0.00,VWS V14.01,2013-03-21 01:25:00,
2013-03-20 21:30:00,38.7,-3.7,29.77,West,259,0.0,0.0,16,0.00,,---,0.00,VWS V14.01,2013-03-21 01:30:00,
2013-03-20 21:35:00,38.5,-3.8,29.77,SSW,213,2.7,2.7,16,0.00,,---,0.00,VWS V14.01,2013-03-21 01:35:00,
2013-03-20 21:40:00,38.7,-3.7,29.77,SE,144,2.7,2.7,16,0.00,,---,0.00,VWS V14.01,2013-03-21 01:40:00,
2013-03-20 21:45:00,38.5,-3.8,29.77,SE,124,2.7,2.7,16,0.00,,---,0.00,VWS V14.01,2013-03-21 01:45:00,
2013-03-20 21:50:00,38.5,-3.8,29.77,ENE,57,0.0,0.0,16,0.00,,---,0.00,VWS V14.01,2013-03-21 01:50:00,
2013-03-20 21:55:00,38.3,-4.0,29.77,ENE,57,0.0,0.0,16,0.00,,---,0.00,VWS V14.01,2013-03-21 01:55:00,
2013-03-20 22:00:00,38.3,-4.0,29.77,ESE,113,0.0,0.0,16,0.00,,---,0.00,VWS V14.01,2013-03-21 02:00:00,
2013-03-20 22:05:00,38.3,-4.0,29.77,SE,144,0.0,0.0,16,0.00,,---,0.00,VWS V14.01,2013-03-21 02:05:00,
2013-03-20 22:10:00,38.3,-4.0,29.77,SE,144,0.0,0.0,16,0.00,,---,0.00,VWS V14.01,2013-03-21 02:10:00,
2013-03-20 22:15:00,38.3,-4.0,29.80,SE,144,0.0,0.0,16,0.00,,---,0.00,VWS V14.01,2013-03-21 02:15:00,
2013-03-20 22:20:00,38.3,-4.0,29.80,SE,144,0.0,0.0,16,0.00,,---,0.00,VWS V14.01,2013-03-21 02:20:00,
2013-03-20 22:25:00,38.3,-4.0,29.80,SE,144,0.0,0.0,16,0.00,,---,0.00,VWS V14.01,2013-03-21 02:25:00,
2013-03-20 22:30:00,38.5,-3.8,29.80,SE,144,0.0,0.0,16,0.00,,---,0.00,VWS V14.01,2013-03-21 02:30:00,
2013-03-20 22:35:00,38.1,-4.1,29.80,SE,144,0.0,0.0,16,0.00,,---,0.00,VWS V14.01,2013-03-21 02:35:00,
2013-03-20 22:40:00,38.1,-4.1,29.80,SE,144,0.0,0.0,16,0.00,,---,0.00,VWS V14.01,2013-03-21 02:40:00,
2013-03-20 22:45:00,38.1,-4.1,29.80,SE,144,0.0,0.0,16,0.00,,---,0.00,VWS V14.01,2013-03-21 02:45:00,
2013-03-20 22:50:00,38.1,-4.1,29.80,SE,144,0.0,0.0,16,0.00,,---,0.00,VWS V14.01,2013-03-21 02:50:00,
2013-03-20 22:55:00,38.5,-0.2,29.80,SSW,211,5.8,5.8,19,0.00,,---,0.00,VWS V14.01,2013-03-21 02:55:00,
2013-03-20 23:00:00,39.4,-3.1,29.80,SW,226,9.6,9.6,16,0.00,,---,0.00,VWS V14.01,2013-03-21 03:00:00,
2013-03-20 23:05:00,40.3,-2.3,29.80,WSW,243,6.3,6.3,16,0.00,,---,0.00,VWS V14.01,2013-03-21 03:05:00,
2013-03-20 23:10:00,40.6,-2.0,29.80,West,276,3.1,3.1,16,0.00,,---,0.00,VWS V14.01,2013-03-21 03:10:00,
2013-03-20 23:15:00,40.6,-2.0,29.77,SW,235,2.7,2.7,16,0.00,,---,0.00,VWS V14.01,2013-03-21 03:15:00,
2013-03-20 23:20:00,40.8,-1.9,29.77,SSW,208,5.4,5.4,16,0.00,,---,0.00,VWS V14.01,2013-03-21 03:20:00,
2013-03-20 23:25:00,41.0,-1.7,29.77,SW,229,3.6,3.6,16,0.00,,---,0.00,VWS V14.01,2013-03-21 03:25:00,
2013-03-20 23:30:00,41.0,-1.7,29.77,WSW,243,2.2,2.2,16,0.00,,---,0.00,VWS V14.01,2013-03-21 03:30:00,
2013-03-20 23:35:00,41.0,-1.7,29.77,WSW,243,0.0,0.0,16,0.00,,---,0.00,VWS V14.01,2013-03-21 03:35:00,
2013-03-20 23:40:00,40.6,-2.0,29.77,WSW,243,0.0,0.0,16,0.00,,---,0.00,VWS V14.01,2013-03-21 03:40:00,
2013-03-20 23:45:00,40.3,-2.3,29.77,WSW,248,0.0,0.0,16,0.00,,---,0.00,VWS V14.01,2013-03-21 03:45:00,
2013-03-20 23:51:00,39.9,-2.6,29.77,WSW,255,0.0,0.0,16,0.00,,---,0.00,VWS V14.01,2013-03-21 03:51:00,
2013-03-20 23:56:00,39.7,-2.8,29.77,WSW,255,0.0,0.0,16,0.00,,---,0.00,VWS V14.01,2013-03-21 03:56:00,